Observations for MANCHESTER INTL, United Kingdom (EGCC)

EGCC 200620Z AUTO VRB01KT 9999 NCD 08/05 Q1032 NOSIG
EGCC 200550Z AUTO 15003KT 9999 NCD 07/04 Q1032 NOSIG
EGCC 200520Z AUTO VRB01KT 9999 NCD 06/04 Q1032 NOSIG
EGCC 200450Z AUTO VRB01KT 9000 NCD 06/04 Q1032 NOSIG
EGCC 200420Z AUTO 11002KT 9999 NCD 06/05 Q1032 NOSIG
EGCC 200350Z AUTO 13002KT 9999 NCD 06/05 Q1032 NOSIG
EGCC 200320Z AUTO 13002KT 9999 NCD 06/04 Q1032 NOSIG
EGCC 200250Z AUTO VRB01KT 9999 NCD 06/05 Q1032 NOSIG
EGCC 200220Z AUTO VRB01KT 9999 NCD 07/05 Q1032 NOSIG
EGCC 200150Z AUTO 25002KT 9999 NCD 08/05 Q1032 NOSIG
EGCC 200120Z AUTO VRB02KT 9999 NCD 08/05 Q1032 NOSIG
EGCC 200050Z AUTO VRB02KT 9999 NCD 09/05 Q1032 NOSIG
EGCC 200020Z AUTO 05003KT 9999 NCD 11/05 Q1032 NOSIG
EGCC 192350Z AUTO 36001KT 9999 NCD 12/05 Q1032 NOSIG
EGCC 192320Z AUTO 32002KT 9999 NCD 14/05 Q1032 NOSIG
EGCC 192250Z AUTO VRB02KT 9999 NCD 14/05 Q1032 NOSIG
EGCC 192220Z 09003KT CAVOK 12/05 Q1032 NOSIG
EGCC 192150Z AUTO 10003KT 9999 NCD 13/06 Q1032 NOSIG
EGCC 192120Z AUTO VRB03KT 9999 NCD 14/06 Q1031 NOSIG
EGCC 192050Z AUTO 10003KT 9999 NCD 15/06 Q1031 NOSIG
EGCC 192020Z AUTO 08005KT 9999 NCD 15/06 Q1031 NOSIG
EGCC 191950Z AUTO 10004KT 9999 NCD 16/06 Q1031 NOSIG
EGCC 191920Z AUTO 11002KT 9999 NCD 18/05 Q1031 NOSIG
EGCC 191850Z AUTO 12003KT 9999 NCD 19/06 Q1031 NOSIG
EGCC 191820Z AUTO VRB02KT 9999 NCD 20/06 Q1030 NOSIG
EGCC 191750Z AUTO 09004KT 050V140 9999 NCD 20/06 Q1030 NOSIG
EGCC 191720Z AUTO 09004KT 050V210 9999 NCD 21/07 Q1030 NOSIG
EGCC 191650Z AUTO VRB03KT 9999 NCD 21/05 Q1030 NOSIG
EGCC 191620Z AUTO VRB02KT 9999 NCD 22/06 Q1030 NOSIG
EGCC 191550Z AUTO VRB04KT 9999 NCD 22/06 Q1030 NOSIG
EGCC 191520Z AUTO 13004KT 050V190 9999 NCD 22/06 Q1030 NOSIG
EGCC 191450Z AUTO VRB05KT 9999 NCD 22/05 Q1030 NOSIG
EGCC 191420Z AUTO VRB03KT 9999 NCD 22/04 Q1030 NOSIG
EGCC 191350Z AUTO 12005KT 070V200 9999 NCD 22/04 Q1030 NOSIG
EGCC 191320Z AUTO 12006KT 060V200 9999 NCD 22/04 Q1030 NOSIG
EGCC 191250Z AUTO VRB05KT 9999 NCD 22/04 Q1030 NOSIG
EGCC 191220Z AUTO VRB06KT 9999 NCD 22/05 Q1030 NOSIG
EGCC 191150Z AUTO 10007KT 050V160 9999 NCD 21/04 Q1030 NOSIG
EGCC 191120Z AUTO 09007KT 040V150 9999 NCD 21/05 Q1030 NOSIG
EGCC 191050Z AUTO 11006KT 050V190 9999 NCD 20/05 Q1030 NOSIG
EGCC 191020Z AUTO 11005KT 020V180 9999 NCD 20/06 Q1030 NOSIG
EGCC 190950Z AUTO VRB05KT 9999 NCD 19/07 Q1030 NOSIG
EGCC 190920Z AUTO 08005KT 050V110 9999 NCD 18/06 Q1030 NOSIG
EGCC 190850Z AUTO VRB03KT 9999 NCD 17/07 Q1030 NOSIG
EGCC 190820Z AUTO 08004KT 050V110 9999 NCD 15/07 Q1030 NOSIG
EGCC 190750Z AUTO 07004KT 050V110 9999 NCD 14/07 Q1030 NOSIG
EGCC 190720Z AUTO VRB02KT 9999 NCD 13/06 Q1030 NOSIG
EGCC 190650Z AUTO 05004KT 9999 NCD 11/07 Q1030 NOSIG
EGCC 190620Z AUTO 05004KT 9999 NCD 09/06 Q1029  
EGCC 190550Z AUTO 06006KT 9999 NCD 08/05 Q1029 NOSIG